Stringtown, Missouri
Current Conditions -  °F | °C
As of 2:53 PM on Tuesday 21 Oct 2014 (Local Time) from KJLN Reporting Station
Clear Clear  
Wind Chill: 75°   Ceiling: Unl
Heat Index: 75°   Visibility: 10mi
Dew Point: 49°   Wind: 0mph
Humidity: 40%   Direction: NA
Pressure: 30.08"   Gusts: NA
Location:  37.2082°N, 94.5634°W
Report Text: KJLN 211953Z 00000KT 10SM CLR 24/09 A3008 RMK AO2 SLP181 T02390094
Loading
Personal Weather Stations






























Interactive Weather Map
Tropical Storm Tracking
New forecast layout! Learn more

10-Day Weather Forecast

Advertisements
Track Severe Weather on mobile